sensor_id;sensor_type;location;lat;lon;timestamp;temperature;humidity
3478;DHT22;37937;61.490;23.506;2024-03-08T00:00:01;-3.80;99.90
3478;DHT22;37937;61.490;23.506;2024-03-08T00:02:45;-3.80;99.90
3478;DHT22;37937;61.490;23.506;2024-03-08T00:05:11;-3.80;99.90
3478;DHT22;37937;61.490;23.506;2024-03-08T00:07:37;-3.80;99.90
3478;DHT22;37937;61.490;23.506;2024-03-08T00:10:03;-3.80;99.90
3478;DHT22;37937;61.490;23.506;2024-03-08T00:12:29;-3.80;99.90
3478;DHT22;37937;61.490;23.506;2024-03-08T00:14:56;-3.80;99.90
3478;DHT22;37937;61.490;23.506;2024-03-08T00:17:21;-3.80;99.90
3478;DHT22;37937;61.490;23.506;2024-03-08T00:19:48;-3.80;99.90
3478;DHT22;37937;61.490;23.506;2024-03-08T00:22:15;-3.70;99.90
3478;DHT22;37937;61.490;23.506;2024-03-08T00:24:41;-3.70;99.90
3478;DHT22;37937;61.490;23.506;2024-03-08T00:27:06;-3.90;99.90
3478;DHT22;37937;61.490;23.506;2024-03-08T00:29:34;-3.80;99.90
3478;DHT22;37937;61.490;23.506;2024-03-08T00:31:59;-3.70;99.90
3478;DHT22;37937;61.490;23.506;2024-03-08T00:34:25;-3.80;99.90
3478;DHT22;37937;61.490;23.506;2024-03-08T00:36:51;-3.70;99.90
3478;DHT22;37937;61.490;23.506;2024-03-08T00:39:18;-3.80;99.90
3478;DHT22;37937;61.490;23.506;2024-03-08T00:41:45;-3.80;99.90
3478;DHT22;37937;61.490;23.506;2024-03-08T00:44:10;-4.00;99.90
3478;DHT22;37937;61.490;23.506;2024-03-08T00:46:36;-4.00;99.90
3478;DHT22;37937;61.490;23.506;2024-03-08T00:49:02;-4.00;99.90
3478;DHT22;37937;61.490;23.506;2024-03-08T00:51:27;-4.00;99.90
3478;DHT22;37937;61.490;23.506;2024-03-08T00:53:53;-4.10;99.90
3478;DHT22;37937;61.490;23.506;2024-03-08T00:56:18;-4.00;99.90
3478;DHT22;37937;61.490;23.506;2024-03-08T00:58:44;-4.00;99.90
3478;DHT22;37937;61.490;23.506;2024-03-08T01:01:09;-3.80;99.90
3478;DHT22;37937;61.490;23.506;2024-03-08T01:03:35;-3.90;99.90
3478;DHT22;37937;61.490;23.506;2024-03-08T01:06:01;-3.80;99.90
3478;DHT22;37937;61.490;23.506;2024-03-08T01:08:27;-3.80;99.90
3478;DHT22;37937;61.490;23.506;2024-03-08T01:10:53;-3.70;99.90
3478;DHT22;37937;61.490;23.506;2024-03-08T01:13:19;-3.80;99.90
3478;DHT22;37937;61.490;23.506;2024-03-08T01:15:45;-3.80;99.90
3478;DHT22;37937;61.490;23.506;2024-03-08T01:18:11;-3.80;99.90
3478;DHT22;37937;61.490;23.506;2024-03-08T01:20:36;-3.90;99.90
3478;DHT22;37937;61.490;23.506;2024-03-08T01:23:02;-3.90;99.90
3478;DHT22;37937;61.490;23.506;2024-03-08T01:25:31;-3.90;99.90
3478;DHT22;37937;61.490;23.506;2024-03-08T01:27:57;-3.90;99.90
3478;DHT22;37937;61.490;23.506;2024-03-08T01:30:22;-3.80;99.90
3478;DHT22;37937;61.490;23.506;2024-03-08T01:32:48;-3.70;99.90
3478;DHT22;37937;61.490;23.506;2024-03-08T01:35:14;-3.70;99.90
3478;DHT22;37937;61.490;23.506;2024-03-08T01:37:39;-3.60;99.90
3478;DHT22;37937;61.490;23.506;2024-03-08T01:40:05;-3.60;99.90
3478;DHT22;37937;61.490;23.506;2024-03-08T01:42:32;-3.60;99.90
3478;DHT22;37937;61.490;23.506;2024-03-08T01:44:58;-3.80;99.90
3478;DHT22;37937;61.490;23.506;2024-03-08T01:47:23;-3.60;99.90
3478;DHT22;37937;61.490;23.506;2024-03-08T01:49:49;-3.80;99.90
3478;DHT22;37937;61.490;23.506;2024-03-08T01:52:15;-3.90;99.90
3478;DHT22;37937;61.490;23.506;2024-03-08T01:54:41;-3.90;99.90
3478;DHT22;37937;61.490;23.506;2024-03-08T01:57:07;-3.90;99.90
3478;DHT22;37937;61.490;23.506;2024-03-08T01:59:33;-4.00;99.90
3478;DHT22;37937;61.490;23.506;2024-03-08T02:02:00;-3.90;99.90
3478;DHT22;37937;61.490;23.506;2024-03-08T02:04:26;-4.00;99.90
3478;DHT22;37937;61.490;23.506;2024-03-08T02:06:52;-4.00;99.90
3478;DHT22;37937;61.490;23.506;2024-03-08T02:09:18;-3.90;99.90
3478;DHT22;37937;61.490;23.506;2024-03-08T02:11:43;-3.90;99.90
3478;DHT22;37937;61.490;23.506;2024-03-08T02:14:09;-3.80;99.90
3478;DHT22;37937;61.490;23.506;2024-03-08T02:16:36;-4.00;99.90
3478;DHT22;37937;61.490;23.506;2024-03-08T02:19:03;-4.00;99.90
3478;DHT22;37937;61.490;23.506;2024-03-08T02:21:28;-4.00;99.90
3478;DHT22;37937;61.490;23.506;2024-03-08T02:23:55;-4.00;99.90
3478;DHT22;37937;61.490;23.506;2024-03-08T02:26:20;-4.10;99.90
3478;DHT22;37937;61.490;23.506;2024-03-08T02:28:46;-3.90;99.90
3478;DHT22;37937;61.490;23.506;2024-03-08T02:31:12;-4.10;99.90
3478;DHT22;37937;61.490;23.506;2024-03-08T02:33:37;-4.10;99.90
3478;DHT22;37937;61.490;23.506;2024-03-08T02:36:03;-4.10;99.90
3478;DHT22;37937;61.490;23.506;2024-03-08T02:38:29;-4.20;99.90
3478;DHT22;37937;61.490;23.506;2024-03-08T02:40:55;-4.20;99.90
3478;DHT22;37937;61.490;23.506;2024-03-08T02:43:21;-4.20;99.90
3478;DHT22;37937;61.490;23.506;2024-03-08T02:45:50;-4.20;99.90
3478;DHT22;37937;61.490;23.506;2024-03-08T02:48:15;-4.10;99.90
3478;DHT22;37937;61.490;23.506;2024-03-08T02:50:44;-4.10;99.90
3478;DHT22;37937;61.490;23.506;2024-03-08T02:53:10;-4.10;99.90
3478;DHT22;37937;61.490;23.506;2024-03-08T02:55:37;-4.10;99.90
3478;DHT22;37937;61.490;23.506;2024-03-08T02:58:03;-4.00;99.90
3478;DHT22;37937;61.490;23.506;2024-03-08T03:00:30;-4.10;99.90
3478;DHT22;37937;61.490;23.506;2024-03-08T03:02:59;-4.10;99.90
3478;DHT22;37937;61.490;23.506;2024-03-08T03:05:24;-4.20;99.90
3478;DHT22;37937;61.490;23.506;2024-03-08T03:07:50;-4.00;99.90
3478;DHT22;37937;61.490;23.506;2024-03-08T03:10:16;-4.00;99.90
3478;DHT22;37937;61.490;23.506;2024-03-08T03:12:42;-4.10;99.90
3478;DHT22;37937;61.490;23.506;2024-03-08T03:15:08;-4.10;99.90
3478;DHT22;37937;61.490;23.506;2024-03-08T03:17:33;-4.20;99.90
3478;DHT22;37937;61.490;23.506;2024-03-08T03:19:59;-4.10;99.90
3478;DHT22;37937;61.490;23.506;2024-03-08T03:22:28;-4.20;99.90
3478;DHT22;37937;61.490;23.506;2024-03-08T03:24:55;-4.40;99.90
3478;DHT22;37937;61.490;23.506;2024-03-08T03:27:23;-4.30;99.90
3478;DHT22;37937;61.490;23.506;2024-03-08T03:29:50;-4.30;99.90
3478;DHT22;37937;61.490;23.506;2024-03-08T03:32:17;-4.30;99.90
3478;DHT22;37937;61.490;23.506;2024-03-08T03:34:43;-4.30;99.90
3478;DHT22;37937;61.490;23.506;2024-03-08T03:37:09;-4.30;99.90
3478;DHT22;37937;61.490;23.506;2024-03-08T03:39:38;-4.30;99.90
3478;DHT22;37937;61.490;23.506;2024-03-08T03:42:17;-4.20;99.90
3478;DHT22;37937;61.490;23.506;2024-03-08T03:44:46;-4.30;99.90
3478;DHT22;37937;61.490;23.506;2024-03-08T03:47:12;-4.50;99.90
3478;DHT22;37937;61.490;23.506;2024-03-08T03:49:38;-4.50;99.90
3478;DHT22;37937;61.490;23.506;2024-03-08T03:52:04;-4.40;99.90
3478;DHT22;37937;61.490;23.506;2024-03-08T03:54:30;-4.40;99.90
3478;DHT22;37937;61.490;23.506;2024-03-08T03:56:56;-4.30;99.90
3478;DHT22;37937;61.490;23.506;2024-03-08T03:59:21;-4.40;99.90
3478;DHT22;37937;61.490;23.506;2024-03-08T04:01:47;-4.30;99.90
3478;DHT22;37937;61.490;23.506;2024-03-08T04:04:13;-4.20;99.90
3478;DHT22;37937;61.490;23.506;2024-03-08T04:06:38;-4.30;99.90
3478;DHT22;37937;61.490;23.506;2024-03-08T04:09:04;-4.40;99.90
3478;DHT22;37937;61.490;23.506;2024-03-08T04:11:30;-4.30;99.90
3478;DHT22;37937;61.490;23.506;2024-03-08T04:13:55;-4.40;99.90
3478;DHT22;37937;61.490;23.506;2024-03-08T04:16:21;-4.40;99.90
3478;DHT22;37937;61.490;23.506;2024-03-08T04:18:47;-4.50;99.90
3478;DHT22;37937;61.490;23.506;2024-03-08T04:21:13;-4.50;99.90
3478;DHT22;37937;61.490;23.506;2024-03-08T04:23:38;-4.40;99.90
3478;DHT22;37937;61.490;23.506;2024-03-08T04:26:04;-4.40;99.90
3478;DHT22;37937;61.490;23.506;2024-03-08T04:28:31;-4.20;99.90
3478;DHT22;37937;61.490;23.506;2024-03-08T04:30:57;-4.30;99.90
3478;DHT22;37937;61.490;23.506;2024-03-08T04:33:23;-4.20;99.90
3478;DHT22;37937;61.490;23.506;2024-03-08T04:35:49;-4.40;99.90
3478;DHT22;37937;61.490;23.506;2024-03-08T04:38:14;-4.40;99.90
3478;DHT22;37937;61.490;23.506;2024-03-08T04:40:41;-4.30;99.90
3478;DHT22;37937;61.490;23.506;2024-03-08T04:43:06;-4.30;99.90
3478;DHT22;37937;61.490;23.506;2024-03-08T04:45:33;-4.20;99.90
3478;DHT22;37937;61.490;23.506;2024-03-08T04:47:59;-4.40;99.90
3478;DHT22;37937;61.490;23.506;2024-03-08T04:50:25;-4.40;99.90
3478;DHT22;37937;61.490;23.506;2024-03-08T04:52:50;-4.50;99.90
3478;DHT22;37937;61.490;23.506;2024-03-08T04:55:16;-4.40;99.90
3478;DHT22;37937;61.490;23.506;2024-03-08T04:57:41;-4.40;99.90
3478;DHT22;37937;61.490;23.506;2024-03-08T05:00:09;-4.40;99.90
3478;DHT22;37937;61.490;23.506;2024-03-08T05:02:38;-4.40;99.90
3478;DHT22;37937;61.490;23.506;2024-03-08T05:05:04;-4.20;99.90
3478;DHT22;37937;61.490;23.506;2024-03-08T05:07:31;-4.30;99.90
3478;DHT22;37937;61.490;23.506;2024-03-08T05:09:58;-4.20;99.90
3478;DHT22;37937;61.490;23.506;2024-03-08T05:12:23;-4.40;99.90
3478;DHT22;37937;61.490;23.506;2024-03-08T05:14:49;-4.40;99.90
3478;DHT22;37937;61.490;23.506;2024-03-08T05:17:15;-4.30;99.90
3478;DHT22;37937;61.490;23.506;2024-03-08T05:19:41;-4.30;99.90
3478;DHT22;37937;61.490;23.506;2024-03-08T05:22:07;-4.30;99.90
3478;DHT22;37937;61.490;23.506;2024-03-08T05:24:33;-4.40;99.90
3478;DHT22;37937;61.490;23.506;2024-03-08T05:26:59;-4.50;99.90
3478;DHT22;37937;61.490;23.506;2024-03-08T05:29:25;-4.50;99.90
3478;DHT22;37937;61.490;23.506;2024-03-08T05:31:51;-4.60;99.90
3478;DHT22;37937;61.490;23.506;2024-03-08T05:34:20;-4.60;99.90
3478;DHT22;37937;61.490;23.506;2024-03-08T05:36:47;-4.60;99.90
3478;DHT22;37937;61.490;23.506;2024-03-08T05:39:17;-4.40;99.90
3478;DHT22;37937;61.490;23.506;2024-03-08T05:41:43;-4.40;99.90
3478;DHT22;37937;61.490;23.506;2024-03-08T05:44:09;-4.40;99.90
3478;DHT22;37937;61.490;23.506;2024-03-08T05:46:35;-4.60;99.90
3478;DHT22;37937;61.490;23.506;2024-03-08T05:49:01;-4.60;99.90
3478;DHT22;37937;61.490;23.506;2024-03-08T05:51:34;-4.50;99.90
3478;DHT22;37937;61.490;23.506;2024-03-08T05:54:06;-4.60;99.90
3478;DHT22;37937;61.490;23.506;2024-03-08T05:56:34;-4.60;99.90
3478;DHT22;37937;61.490;23.506;2024-03-08T05:59:00;-4.50;99.90
3478;DHT22;37937;61.490;23.506;2024-03-08T06:01:26;-4.40;99.90
3478;DHT22;37937;61.490;23.506;2024-03-08T06:03:52;-4.30;99.90
3478;DHT22;37937;61.490;23.506;2024-03-08T06:06:19;-4.40;99.90
3478;DHT22;37937;61.490;23.506;2024-03-08T06:08:47;-4.40;99.90
3478;DHT22;37937;61.490;23.506;2024-03-08T06:11:18;-4.50;99.90
3478;DHT22;37937;61.490;23.506;2024-03-08T06:13:44;-4.40;99.90
3478;DHT22;37937;61.490;23.506;2024-03-08T06:16:09;-4.30;99.90
3478;DHT22;37937;61.490;23.506;2024-03-08T06:18:35;-4.20;99.90
3478;DHT22;37937;61.490;23.506;2024-03-08T06:21:04;-4.20;99.90
3478;DHT22;37937;61.490;23.506;2024-03-08T06:23:41;-4.20;99.90
3478;DHT22;37937;61.490;23.506;2024-03-08T06:26:07;-4.30;99.90
3478;DHT22;37937;61.490;23.506;2024-03-08T06:28:32;-4.30;99.90
3478;DHT22;37937;61.490;23.506;2024-03-08T06:30:59;-4.30;99.90
3478;DHT22;37937;61.490;23.506;2024-03-08T06:33:24;-4.20;99.90
3478;DHT22;37937;61.490;23.506;2024-03-08T06:35:52;-4.40;99.90
3478;DHT22;37937;61.490;23.506;2024-03-08T06:38:17;-4.40;99.90
3478;DHT22;37937;61.490;23.506;2024-03-08T06:40:43;-4.30;99.90
3478;DHT22;37937;61.490;23.506;2024-03-08T06:43:09;-4.20;99.90
3478;DHT22;37937;61.490;23.506;2024-03-08T06:45:36;-4.30;99.90
3478;DHT22;37937;61.490;23.506;2024-03-08T06:48:03;-4.20;99.90
3478;DHT22;37937;61.490;23.506;2024-03-08T06:50:28;-4.20;99.90
3478;DHT22;37937;61.490;23.506;2024-03-08T06:52:54;-4.30;99.90
3478;DHT22;37937;61.490;23.506;2024-03-08T06:55:20;-4.30;99.90
3478;DHT22;37937;61.490;23.506;2024-03-08T06:57:45;-4.50;99.90
3478;DHT22;37937;61.490;23.506;2024-03-08T07:00:11;-4.40;99.90
3478;DHT22;37937;61.490;23.506;2024-03-08T07:02:42;-4.60;99.90
3478;DHT22;37937;61.490;23.506;2024-03-08T07:05:07;-4.50;99.90
3478;DHT22;37937;61.490;23.506;2024-03-08T07:07:35;-4.60;99.90
3478;DHT22;37937;61.490;23.506;2024-03-08T07:10:01;-4.60;99.90
3478;DHT22;37937;61.490;23.506;2024-03-08T07:12:26;-4.30;99.90
3478;DHT22;37937;61.490;23.506;2024-03-08T07:14:52;-4.20;99.90
3478;DHT22;37937;61.490;23.506;2024-03-08T07:17:18;-4.10;99.90
3478;DHT22;37937;61.490;23.506;2024-03-08T07:19:44;-4.00;99.90
3478;DHT22;37937;61.490;23.506;2024-03-08T07:22:10;-3.90;99.90
3478;DHT22;37937;61.490;23.506;2024-03-08T07:24:36;-3.80;99.90
3478;DHT22;37937;61.490;23.506;2024-03-08T07:27:03;-4.10;99.90
3478;DHT22;37937;61.490;23.506;2024-03-08T07:29:33;-3.90;99.90
3478;DHT22;37937;61.490;23.506;2024-03-08T07:31:59;-4.00;99.90
3478;DHT22;37937;61.490;23.506;2024-03-08T07:34:28;-4.00;99.90
3478;DHT22;37937;61.490;23.506;2024-03-08T07:36:57;-3.80;99.90
3478;DHT22;37937;61.490;23.506;2024-03-08T07:39:23;-3.80;99.90
3478;DHT22;37937;61.490;23.506;2024-03-08T07:41:49;-4.00;99.90
3478;DHT22;37937;61.490;23.506;2024-03-08T07:44:18;-3.70;99.90
3478;DHT22;37937;61.490;23.506;2024-03-08T07:46:44;-3.60;99.90
3478;DHT22;37937;61.490;23.506;2024-03-08T07:49:09;-3.80;99.90
3478;DHT22;37937;61.490;23.506;2024-03-08T07:51:36;-3.80;99.90
3478;DHT22;37937;61.490;23.506;2024-03-08T07:54:02;-3.70;99.90
3478;DHT22;37937;61.490;23.506;2024-03-08T07:56:30;-3.40;99.90
3478;DHT22;37937;61.490;23.506;2024-03-08T07:58:56;-3.50;99.90
3478;DHT22;37937;61.490;23.506;2024-03-08T08:01:21;-3.50;99.90
3478;DHT22;37937;61.490;23.506;2024-03-08T08:03:47;-3.50;99.90
3478;DHT22;37937;61.490;23.506;2024-03-08T08:06:17;-3.60;99.90
3478;DHT22;37937;61.490;23.506;2024-03-08T08:08:42;-3.50;99.90
3478;DHT22;37937;61.490;23.506;2024-03-08T08:11:08;-3.40;99.90
3478;DHT22;37937;61.490;23.506;2024-03-08T08:13:34;-3.40;99.90
3478;DHT22;37937;61.490;23.506;2024-03-08T08:15:59;-3.30;99.90
3478;DHT22;37937;61.490;23.506;2024-03-08T08:18:25;-3.00;99.90
3478;DHT22;37937;61.490;23.506;2024-03-08T08:20:51;-3.00;99.90
3478;DHT22;37937;61.490;23.506;2024-03-08T08:23:17;-2.80;99.90
3478;DHT22;37937;61.490;23.506;2024-03-08T08:25:45;-3.00;99.90
3478;DHT22;37937;61.490;23.506;2024-03-08T08:28:10;-2.90;99.90
3478;DHT22;37937;61.490;23.506;2024-03-08T08:30:38;-2.90;99.90
3478;DHT22;37937;61.490;23.506;2024-03-08T08:33:03;-3.00;99.90
3478;DHT22;37937;61.490;23.506;2024-03-08T08:35:31;-3.10;99.90
3478;DHT22;37937;61.490;23.506;2024-03-08T08:37:57;-2.80;99.90
3478;DHT22;37937;61.490;23.506;2024-03-08T08:40:24;-3.00;99.90
3478;DHT22;37937;61.490;23.506;2024-03-08T08:42:51;-2.80;99.90
3478;DHT22;37937;61.490;23.506;2024-03-08T08:45:18;-3.30;99.90
3478;DHT22;37937;61.490;23.506;2024-03-08T08:47:44;-2.90;99.90
3478;DHT22;37937;61.490;23.506;2024-03-08T08:50:10;-2.80;99.90
3478;DHT22;37937;61.490;23.506;2024-03-08T08:52:39;-2.50;99.90
3478;DHT22;37937;61.490;23.506;2024-03-08T08:55:05;-2.40;99.90
3478;DHT22;37937;61.490;23.506;2024-03-08T08:57:32;-2.70;99.90
3478;DHT22;37937;61.490;23.506;2024-03-08T08:59:58;-2.70;99.90
3478;DHT22;37937;61.490;23.506;2024-03-08T09:02:24;-2.70;99.90
3478;DHT22;37937;61.490;23.506;2024-03-08T09:04:51;-2.70;99.90
3478;DHT22;37937;61.490;23.506;2024-03-08T09:07:16;-2.40;99.90
3478;DHT22;37937;61.490;23.506;2024-03-08T09:09:44;-2.50;99.90
3478;DHT22;37937;61.490;23.506;2024-03-08T09:12:10;-2.50;99.90
3478;DHT22;37937;61.490;23.506;2024-03-08T09:14:41;-2.60;99.90
3478;DHT22;37937;61.490;23.506;2024-03-08T09:17:07;-2.50;99.90
3478;DHT22;37937;61.490;23.506;2024-03-08T09:19:34;-2.30;99.90
3478;DHT22;37937;61.490;23.506;2024-03-08T09:21:59;-2.30;99.90
3478;DHT22;37937;61.490;23.506;2024-03-08T09:24:25;-2.40;99.90
3478;DHT22;37937;61.490;23.506;2024-03-08T09:26:51;-2.20;99.90
3478;DHT22;37937;61.490;23.506;2024-03-08T09:29:17;-2.20;99.90
3478;DHT22;37937;61.490;23.506;2024-03-08T09:31:43;-2.30;99.90
3478;DHT22;37937;61.490;23.506;2024-03-08T09:34:08;-2.20;99.90
3478;DHT22;37937;61.490;23.506;2024-03-08T09:36:34;-2.30;99.90
3478;DHT22;37937;61.490;23.506;2024-03-08T09:38:59;-2.00;99.90
3478;DHT22;37937;61.490;23.506;2024-03-08T09:41:26;-2.10;99.90
3478;DHT22;37937;61.490;23.506;2024-03-08T09:43:51;-2.00;99.90
3478;DHT22;37937;61.490;23.506;2024-03-08T09:46:18;-2.10;99.90
3478;DHT22;37937;61.490;23.506;2024-03-08T09:48:45;-1.90;99.90
3478;DHT22;37937;61.490;23.506;2024-03-08T09:51:12;-1.70;99.90
3478;DHT22;37937;61.490;23.506;2024-03-08T09:53:40;-1.60;99.90
3478;DHT22;37937;61.490;23.506;2024-03-08T09:56:07;-1.60;99.90
3478;DHT22;37937;61.490;23.506;2024-03-08T09:58:33;-1.50;99.90
3478;DHT22;37937;61.490;23.506;2024-03-08T10:00:59;-1.50;99.90
3478;DHT22;37937;61.490;23.506;2024-03-08T10:03:29;-1.40;99.90
3478;DHT22;37937;61.490;23.506;2024-03-08T10:05:56;-1.70;99.90
3478;DHT22;37937;61.490;23.506;2024-03-08T10:08:25;-1.60;99.90
3478;DHT22;37937;61.490;23.506;2024-03-08T10:10:51;-2.00;99.90
3478;DHT22;37937;61.490;23.506;2024-03-08T10:13:17;-1.90;99.90
3478;DHT22;37937;61.490;23.506;2024-03-08T10:15:45;-1.90;99.90
3478;DHT22;37937;61.490;23.506;2024-03-08T10:18:10;-1.60;99.90
3478;DHT22;37937;61.490;23.506;2024-03-08T10:20:36;-1.40;99.90
3478;DHT22;37937;61.490;23.506;2024-03-08T10:23:02;-1.40;99.90
3478;DHT22;37937;61.490;23.506;2024-03-08T10:25:31;-1.30;99.90
3478;DHT22;37937;61.490;23.506;2024-03-08T10:27:56;-1.80;99.90
3478;DHT22;37937;61.490;23.506;2024-03-08T10:30:22;-1.70;99.90
3478;DHT22;37937;61.490;23.506;2024-03-08T10:32:48;-1.60;99.90
3478;DHT22;37937;61.490;23.506;2024-03-08T10:35:14;-1.60;99.90
3478;DHT22;37937;61.490;23.506;2024-03-08T10:37:46;-1.70;99.90
3478;DHT22;37937;61.490;23.506;2024-03-08T10:40:15;-1.40;99.90
3478;DHT22;37937;61.490;23.506;2024-03-08T10:42:47;-1.20;99.90
3478;DHT22;37937;61.490;23.506;2024-03-08T10:45:31;-1.20;99.90
3478;DHT22;37937;61.490;23.506;2024-03-08T10:50:44;-1.20;99.90
3478;DHT22;37937;61.490;23.506;2024-03-08T10:53:17;-1.50;99.90
3478;DHT22;37937;61.490;23.506;2024-03-08T10:55:43;-1.60;99.90
3478;DHT22;37937;61.490;23.506;2024-03-08T10:58:09;-1.50;99.90
3478;DHT22;37937;61.490;23.506;2024-03-08T11:00:35;-1.50;99.90
3478;DHT22;37937;61.490;23.506;2024-03-08T11:03:01;-1.60;99.90
3478;DHT22;37937;61.490;23.506;2024-03-08T11:05:39;-1.50;99.90
3478;DHT22;37937;61.490;23.506;2024-03-08T11:08:06;-1.70;99.90
3478;DHT22;37937;61.490;23.506;2024-03-08T11:10:48;-1.60;99.90
3478;DHT22;37937;61.490;23.506;2024-03-08T11:13:35;-1.20;99.90
3478;DHT22;37937;61.490;23.506;2024-03-08T11:16:02;-1.10;99.90
3478;DHT22;37937;61.490;23.506;2024-03-08T11:18:34;-1.30;99.90
3478;DHT22;37937;61.490;23.506;2024-03-08T11:21:07;-1.20;99.90
3478;DHT22;37937;61.490;23.506;2024-03-08T11:23:37;-1.10;99.90
3478;DHT22;37937;61.490;23.506;2024-03-08T11:26:03;-0.90;99.90
3478;DHT22;37937;61.490;23.506;2024-03-08T11:28:32;-1.20;99.90
3478;DHT22;37937;61.490;23.506;2024-03-08T11:33:27;-0.80;99.90
3478;DHT22;37937;61.490;23.506;2024-03-08T11:36:03;-0.90;99.90
3478;DHT22;37937;61.490;23.506;2024-03-08T11:38:43;-0.90;99.90
3478;DHT22;37937;61.490;23.506;2024-03-08T11:41:09;-0.80;99.90
3478;DHT22;37937;61.490;23.506;2024-03-08T11:43:38;-0.80;99.90
3478;DHT22;37937;61.490;23.506;2024-03-08T11:46:09;-0.50;99.90
3478;DHT22;37937;61.490;23.506;2024-03-08T11:48:35;-0.60;99.90
3478;DHT22;37937;61.490;23.506;2024-03-08T11:51:01;-1.10;99.90
3478;DHT22;37937;61.490;23.506;2024-03-08T11:53:27;-1.00;99.90
3478;DHT22;37937;61.490;23.506;2024-03-08T11:55:52;-0.90;99.90
3478;DHT22;37937;61.490;23.506;2024-03-08T11:58:18;-0.70;99.90
3478;DHT22;37937;61.490;23.506;2024-03-08T12:00:44;-0.70;99.90
3478;DHT22;37937;61.490;23.506;2024-03-08T12:03:11;-0.80;99.90
3478;DHT22;37937;61.490;23.506;2024-03-08T12:05:37;-0.80;99.90
3478;DHT22;37937;61.490;23.506;2024-03-08T12:08:03;-0.90;99.90
3478;DHT22;37937;61.490;23.506;2024-03-08T12:10:32;-0.70;99.90
3478;DHT22;37937;61.490;23.506;2024-03-08T12:12:58;-0.80;99.90
3478;DHT22;37937;61.490;23.506;2024-03-08T12:15:24;-1.00;99.90
3478;DHT22;37937;61.490;23.506;2024-03-08T12:17:51;-1.10;99.90
3478;DHT22;37937;61.490;23.506;2024-03-08T12:20:21;-1.00;99.90
3478;DHT22;37937;61.490;23.506;2024-03-08T12:22:47;-0.80;99.90
3478;DHT22;37937;61.490;23.506;2024-03-08T12:25:14;-1.10;99.90
3478;DHT22;37937;61.490;23.506;2024-03-08T12:27:41;-0.80;99.90
3478;DHT22;37937;61.490;23.506;2024-03-08T12:33:19;-0.90;99.90
3478;DHT22;37937;61.490;23.506;2024-03-08T12:35:38;-0.90;99.90
3478;DHT22;37937;61.490;23.506;2024-03-08T12:38:03;-0.80;99.90
3478;DHT22;37937;61.490;23.506;2024-03-08T12:40:31;-0.60;99.90
3478;DHT22;37937;61.490;23.506;2024-03-08T12:42:57;-0.40;99.90
3478;DHT22;37937;61.490;23.506;2024-03-08T12:45:23;-0.50;99.90
3478;DHT22;37937;61.490;23.506;2024-03-08T12:47:52;-0.60;99.90
3478;DHT22;37937;61.490;23.506;2024-03-08T12:50:19;-0.80;99.90
3478;DHT22;37937;61.490;23.506;2024-03-08T12:52:44;-0.60;99.90
3478;DHT22;37937;61.490;23.506;2024-03-08T12:55:10;-0.80;99.90
3478;DHT22;37937;61.490;23.506;2024-03-08T12:57:36;-0.50;99.90
3478;DHT22;37937;61.490;23.506;2024-03-08T13:00:03;-0.40;99.90
3478;DHT22;37937;61.490;23.506;2024-03-08T13:02:29;-0.50;99.90
3478;DHT22;37937;61.490;23.506;2024-03-08T13:04:56;-0.50;99.90
3478;DHT22;37937;61.490;23.506;2024-03-08T13:07:23;-0.50;99.90
3478;DHT22;37937;61.490;23.506;2024-03-08T13:09:54;-0.50;99.90
3478;DHT22;37937;61.490;23.506;2024-03-08T13:12:20;-0.30;99.90
3478;DHT22;37937;61.490;23.506;2024-03-08T13:14:46;-0.40;99.90
3478;DHT22;37937;61.490;23.506;2024-03-08T13:17:14;-0.60;99.90
3478;DHT22;37937;61.490;23.506;2024-03-08T13:19:40;-0.60;99.90
3478;DHT22;37937;61.490;23.506;2024-03-08T13:22:07;-0.50;99.90
3478;DHT22;37937;61.490;23.506;2024-03-08T13:24:37;-0.50;99.90
3478;DHT22;37937;61.490;23.506;2024-03-08T13:27:03;-0.40;99.90
3478;DHT22;37937;61.490;23.506;2024-03-08T13:29:42;-0.30;99.90
3478;DHT22;37937;61.490;23.506;2024-03-08T13:32:08;-0.40;99.90
3478;DHT22;37937;61.490;23.506;2024-03-08T13:34:37;-0.40;99.90
3478;DHT22;37937;61.490;23.506;2024-03-08T13:37:03;-0.40;99.90
3478;DHT22;37937;61.490;23.506;2024-03-08T13:39:31;-0.40;99.90
3478;DHT22;37937;61.490;23.506;2024-03-08T13:42:09;-0.40;99.90
3478;DHT22;37937;61.490;23.506;2024-03-08T13:44:47;-0.20;99.90
3478;DHT22;37937;61.490;23.506;2024-03-08T13:47:13;-0.20;99.90
3478;DHT22;37937;61.490;23.506;2024-03-08T13:49:39;-0.20;99.90
3478;DHT22;37937;61.490;23.506;2024-03-08T13:52:05;-0.30;99.90
3478;DHT22;37937;61.490;23.506;2024-03-08T13:54:30;-0.30;99.90
3478;DHT22;37937;61.490;23.506;2024-03-08T13:56:57;-0.20;99.90
3478;DHT22;37937;61.490;23.506;2024-03-08T13:59:23;-0.30;99.90
3478;DHT22;37937;61.490;23.506;2024-03-08T14:01:49;-0.40;99.90
3478;DHT22;37937;61.490;23.506;2024-03-08T14:04:15;-0.40;99.90
3478;DHT22;37937;61.490;23.506;2024-03-08T14:06:44;-0.50;99.90
3478;DHT22;37937;61.490;23.506;2024-03-08T14:09:13;-0.50;99.90
3478;DHT22;37937;61.490;23.506;2024-03-08T14:11:45;-0.50;99.90
3478;DHT22;37937;61.490;23.506;2024-03-08T14:14:11;-0.40;99.90
3478;DHT22;37937;61.490;23.506;2024-03-08T14:16:39;-0.30;99.90
3478;DHT22;37937;61.490;23.506;2024-03-08T14:19:05;-0.40;99.90
3478;DHT22;37937;61.490;23.506;2024-03-08T14:21:35;-0.30;99.90
3478;DHT22;37937;61.490;23.506;2024-03-08T14:24:02;-0.30;99.90
3478;DHT22;37937;61.490;23.506;2024-03-08T14:26:30;-0.10;99.90
3478;DHT22;37937;61.490;23.506;2024-03-08T14:28:55;-0.30;99.90
3478;DHT22;37937;61.490;23.506;2024-03-08T14:31:22;-0.20;99.90
3478;DHT22;37937;61.490;23.506;2024-03-08T14:33:53;-0.40;99.90
3478;DHT22;37937;61.490;23.506;2024-03-08T14:36:20;-0.20;99.90
3478;DHT22;37937;61.490;23.506;2024-03-08T14:38:46;-0.10;99.90
3478;DHT22;37937;61.490;23.506;2024-03-08T14:41:15;-0.10;99.90
3478;DHT22;37937;61.490;23.506;2024-03-08T14:43:43;-0.20;99.90
3478;DHT22;37937;61.490;23.506;2024-03-08T14:46:13;-0.10;99.90
3478;DHT22;37937;61.490;23.506;2024-03-08T14:48:49;-0.30;99.90
3478;DHT22;37937;61.490;23.506;2024-03-08T14:51:17;-0.30;99.90
3478;DHT22;37937;61.490;23.506;2024-03-08T14:53:45;-0.40;99.90
3478;DHT22;37937;61.490;23.506;2024-03-08T14:56:10;-0.30;99.90
3478;DHT22;37937;61.490;23.506;2024-03-08T14:58:44;-0.40;99.90
3478;DHT22;37937;61.490;23.506;2024-03-08T15:01:11;-0.30;99.90
3478;DHT22;37937;61.490;23.506;2024-03-08T15:03:39;-0.40;99.90
3478;DHT22;37937;61.490;23.506;2024-03-08T15:06:05;-0.30;99.90
3478;DHT22;37937;61.490;23.506;2024-03-08T15:08:38;-0.30;99.90
3478;DHT22;37937;61.490;23.506;2024-03-08T15:11:04;-0.30;99.90
3478;DHT22;37937;61.490;23.506;2024-03-08T15:13:34;-0.30;99.90
3478;DHT22;37937;61.490;23.506;2024-03-08T15:16:07;-0.20;99.90
3478;DHT22;37937;61.490;23.506;2024-03-08T15:18:33;-0.30;99.90
3478;DHT22;37937;61.490;23.506;2024-03-08T15:21:06;-0.30;99.90
3478;DHT22;37937;61.490;23.506;2024-03-08T15:23:35;-0.30;99.90
3478;DHT22;37937;61.490;23.506;2024-03-08T15:26:01;-0.30;99.90
3478;DHT22;37937;61.490;23.506;2024-03-08T15:28:27;-0.30;99.90
3478;DHT22;37937;61.490;23.506;2024-03-08T15:31:01;-0.30;99.90
3478;DHT22;37937;61.490;23.506;2024-03-08T15:33:35;-0.30;99.90
3478;DHT22;37937;61.490;23.506;2024-03-08T15:36:05;-0.30;99.90